createdAt,value
2018-09-08T00:00:18.695Z,0.00
2018-09-08T00:01:18.638Z,0.00
2018-09-08T00:02:18.710Z,0.00
2018-09-08T00:03:18.587Z,0.00
2018-09-08T00:04:18.620Z,0.00
2018-09-08T00:05:18.532Z,0.00
2018-09-08T00:06:18.532Z,0.00
2018-09-08T00:07:18.481Z,0.00
2018-09-08T00:08:18.536Z,0.00
2018-09-08T00:09:18.443Z,0.00
2018-09-08T00:10:18.447Z,0.00
2018-09-08T00:11:18.396Z,0.00
2018-09-08T00:12:18.464Z,0.00
2018-09-08T00:13:18.337Z,0.00
2018-09-08T00:14:18.372Z,0.00
2018-09-08T00:15:18.284Z,0.00
2018-09-08T00:16:18.292Z,0.00
2018-09-08T00:17:18.239Z,0.00
2018-09-08T00:18:18.296Z,0.00
2018-09-08T00:19:18.181Z,0.00
2018-09-08T00:20:18.215Z,0.00
2018-09-08T00:21:18.125Z,0.00
2018-09-08T00:22:18.134Z,0.00
2018-09-08T00:23:18.079Z,0.00
2018-09-08T00:24:18.145Z,0.00
2018-09-08T00:25:18.030Z,0.00
2018-09-08T00:26:18.048Z,0.00
2018-09-08T00:27:18.000Z,0.00
2018-09-08T00:28:18.066Z,0.00
2018-09-08T00:29:17.931Z,0.00
2018-09-08T00:30:17.991Z,0.00
2018-09-08T00:31:17.875Z,0.00
2018-09-08T00:32:17.882Z,0.00
2018-09-08T00:33:17.843Z,0.00
2018-09-08T00:34:17.898Z,0.00
2018-09-08T00:35:17.776Z,0.00
2018-09-08T00:36:17.795Z,0.00
2018-09-08T00:37:17.719Z,0.00
2018-09-08T00:38:17.831Z,0.00
2018-09-08T00:39:17.674Z,0.00
2018-09-08T00:40:17.721Z,0.00
2018-09-08T00:41:17.622Z,0.00
2018-09-08T00:42:17.630Z,0.00
2018-09-08T00:43:17.576Z,0.00
2018-09-08T00:44:17.644Z,0.00
2018-09-08T00:45:17.519Z,0.00
2018-09-08T00:46:17.556Z,0.00
2018-09-08T00:47:17.473Z,0.00
2018-09-08T00:48:17.463Z,0.00
2018-09-08T00:49:17.418Z,0.00
2018-09-08T00:50:17.477Z,0.00
2018-09-08T00:51:17.390Z,0.00
2018-09-08T00:52:17.399Z,0.00
2018-09-08T00:53:17.314Z,0.00
2018-09-08T00:54:17.397Z,0.00
2018-09-08T00:55:17.273Z,0.00
2018-09-08T00:56:17.310Z,0.00
2018-09-08T00:57:17.239Z,0.00
2018-09-08T00:58:17.222Z,0.00
2018-09-08T00:59:17.185Z,0.00
2018-09-08T01:00:17.234Z,0.00
2018-09-08T01:01:17.123Z,0.00
2018-09-08T01:02:17.172Z,0.00
2018-09-08T01:03:17.070Z,0.00
2018-09-08T01:04:17.157Z,0.00
2018-09-08T01:05:17.020Z,0.00
2018-09-08T01:06:17.070Z,0.00
2018-09-08T01:07:17.117Z,0.00
2018-09-08T01:08:16.992Z,0.00
2018-09-08T01:09:16.911Z,0.00
2018-09-08T01:10:17.006Z,0.00
2018-09-08T01:11:16.868Z,0.00
2018-09-08T01:12:16.898Z,0.00
2018-09-08T01:13:16.817Z,0.00
2018-09-08T01:14:16.814Z,0.00
2018-09-08T01:15:16.753Z,0.00
2018-09-08T01:16:16.837Z,0.00
2018-09-08T01:17:16.713Z,0.00
2018-09-08T01:18:16.747Z,0.00
2018-09-08T01:19:16.654Z,0.00
2018-09-08T01:20:16.755Z,0.00
2018-09-08T01:21:16.633Z,0.00
2018-09-08T01:22:16.665Z,0.00
2018-09-08T01:23:16.557Z,0.00
2018-09-08T01:24:16.578Z,0.00
2018-09-08T01:25:16.510Z,0.00
2018-09-08T01:26:16.592Z,0.00
2018-09-08T01:27:16.463Z,0.00
2018-09-08T01:28:16.499Z,0.00
2018-09-08T01:29:16.418Z,0.00
2018-09-08T01:30:16.407Z,0.00
2018-09-08T01:31:16.351Z,0.00
2018-09-08T01:32:16.427Z,0.00
2018-09-08T01:33:16.301Z,0.00
2018-09-08T01:34:16.321Z,0.00
2018-09-08T01:35:16.261Z,0.00
2018-09-08T01:36:16.343Z,0.00
2018-09-08T01:37:16.215Z,0.00
2018-09-08T01:38:16.264Z,0.00
2018-09-08T01:39:16.147Z,0.00
2018-09-08T01:40:16.165Z,0.00
2018-09-08T01:41:16.089Z,0.00
2018-09-08T01:42:16.187Z,0.00
2018-09-08T01:43:16.042Z,0.00
2018-09-08T01:44:16.081Z,0.00
2018-09-08T01:45:15.991Z,0.00
2018-09-08T01:46:15.999Z,0.00
2018-09-08T01:47:15.938Z,0.00
2018-09-08T01:48:16.012Z,0.00
2018-09-08T01:49:15.895Z,0.00
2018-09-08T01:50:15.930Z,0.00
2018-09-08T01:51:15.838Z,0.00
2018-09-08T01:52:15.825Z,0.00
2018-09-08T01:53:15.799Z,0.00
2018-09-08T01:54:15.847Z,0.00
2018-09-08T01:55:15.741Z,0.00
2018-09-08T01:56:15.750Z,0.00
2018-09-08T01:57:15.686Z,0.00
2018-09-08T01:58:15.770Z,0.00
2018-09-08T01:59:15.637Z,0.00
2018-09-08T02:00:15.681Z,0.00
2018-09-08T02:01:15.598Z,0.00
2018-09-08T02:02:15.592Z,0.00
2018-09-08T02:03:15.546Z,0.00
2018-09-08T02:04:15.605Z,0.00
2018-09-08T02:05:15.474Z,0.00
2018-09-08T02:06:15.506Z,0.00
2018-09-08T02:07:15.422Z,0.00
2018-09-08T02:08:15.419Z,0.00
2018-09-08T02:09:15.398Z,0.00
2018-09-08T02:10:15.439Z,0.00
2018-09-08T02:11:15.325Z,0.00
2018-09-08T02:12:15.351Z,0.00
2018-09-08T02:13:15.271Z,0.00
2018-09-08T02:14:15.368Z,0.00
2018-09-08T02:15:15.224Z,0.00
2018-09-08T02:16:15.268Z,0.00
2018-09-08T02:17:15.172Z,0.00
2018-09-08T02:18:15.184Z,0.00
2018-09-08T02:19:15.114Z,0.00
2018-09-08T02:20:15.198Z,0.00
2018-09-08T02:21:15.072Z,0.00
2018-09-08T02:22:15.111Z,0.00
2018-09-08T02:23:15.029Z,0.00
2018-09-08T02:24:15.011Z,0.00
2018-09-08T02:25:15.004Z,0.00
2018-09-08T02:26:15.022Z,0.00
2018-09-08T02:27:14.912Z,0.00
2018-09-08T02:28:14.942Z,0.00
2018-09-08T02:29:14.912Z,0.00
2018-09-08T02:30:14.850Z,0.00
2018-09-08T02:31:14.861Z,0.00
2018-09-08T02:32:14.854Z,0.00
2018-09-08T02:33:14.750Z,0.00
2018-09-08T02:34:14.780Z,0.00
2018-09-08T02:35:14.717Z,0.00
2018-09-08T02:36:14.783Z,0.00
2018-09-08T02:37:14.660Z,0.00
2018-09-08T02:38:14.689Z,0.00
2018-09-08T02:39:14.610Z,0.00
2018-09-08T02:40:14.605Z,0.00
2018-09-08T02:41:14.555Z,0.00
2018-09-08T02:42:14.620Z,0.00
2018-09-08T02:43:14.507Z,0.00
2018-09-08T02:44:14.526Z,0.00
2018-09-08T02:45:14.445Z,0.00
2018-09-08T02:46:14.438Z,0.00
2018-09-08T02:47:14.406Z,0.00
2018-09-08T02:48:14.444Z,0.00
2018-09-08T02:49:14.350Z,0.00
2018-09-08T02:50:14.358Z,0.00
2018-09-08T02:51:14.307Z,0.00
2018-09-08T02:52:14.374Z,0.00
2018-09-08T02:53:14.264Z,0.00
2018-09-08T02:54:14.297Z,0.00
2018-09-08T02:55:14.201Z,0.00
2018-09-08T02:56:14.192Z,0.00
2018-09-08T02:57:14.169Z,0.00
2018-09-08T02:58:14.210Z,0.00
2018-09-08T02:59:14.098Z,0.00
2018-09-08T03:00:14.113Z,0.00
2018-09-08T03:01:14.058Z,0.00
2018-09-08T03:02:14.036Z,0.00
2018-09-08T03:03:14.014Z,0.00
2018-09-08T03:04:14.039Z,0.00
2018-09-08T03:05:13.951Z,0.00
2018-09-08T03:06:13.958Z,0.00
2018-09-08T03:07:13.887Z,0.00
2018-09-08T03:08:13.984Z,0.00
2018-09-08T03:09:13.839Z,0.00
2018-09-08T03:10:13.883Z,0.00
2018-09-08T03:11:13.790Z,0.00
2018-09-08T03:12:13.804Z,0.00
2018-09-08T03:13:13.749Z,0.00
2018-09-08T03:14:13.842Z,0.00
2018-09-08T03:15:13.683Z,0.00
2018-09-08T03:16:13.716Z,0.00
2018-09-08T03:17:13.618Z,0.00
2018-09-08T03:18:13.622Z,0.00
2018-09-08T03:19:13.580Z,0.00
2018-09-08T03:20:13.655Z,0.00
2018-09-08T03:21:13.526Z,0.00
2018-09-08T03:22:13.548Z,0.00
2018-09-08T03:23:13.471Z,0.00
2018-09-08T03:24:13.464Z,0.00
2018-09-08T03:25:13.416Z,0.00
2018-09-08T03:26:13.467Z,0.00
2018-09-08T03:27:13.371Z,0.00
2018-09-08T03:28:13.399Z,0.00
2018-09-08T03:29:13.319Z,0.00
2018-09-08T03:30:13.410Z,0.00
2018-09-08T03:31:13.260Z,0.00
2018-09-08T03:32:13.312Z,0.00
2018-09-08T03:33:13.217Z,0.00
2018-09-08T03:34:13.224Z,0.00
2018-09-08T03:35:13.158Z,0.00
2018-09-08T03:36:13.236Z,0.00
2018-09-08T03:37:13.104Z,0.00
2018-09-08T03:38:13.164Z,0.00
2018-09-08T03:39:13.060Z,0.00
2018-09-08T03:40:59.649Z,0.00
2018-09-08T03:41:59.650Z,0.00
2018-09-08T03:42:59.568Z,0.00
2018-09-08T03:43:59.556Z,0.00
2018-09-08T03:44:59.513Z,0.00
2018-09-08T03:45:59.562Z,0.00
2018-09-08T03:46:59.469Z,0.00
2018-09-08T03:47:59.476Z,0.00
2018-09-08T03:48:59.409Z,0.00
2018-09-08T03:49:59.502Z,0.00
2018-09-08T03:50:59.355Z,0.00
2018-09-08T03:51:59.410Z,0.00
2018-09-08T03:52:59.377Z,0.00
2018-09-08T03:53:59.315Z,0.00
2018-09-08T03:54:59.281Z,0.00
2018-09-08T03:56:04.897Z,0.00
2018-09-08T03:56:59.203Z,0.00
2018-09-08T03:58:01.284Z,0.00
2018-09-08T03:58:59.209Z,0.00
2018-09-08T04:00:00.180Z,0.00
2018-09-08T04:00:59.106Z,0.00
2018-09-08T04:02:03.767Z,0.00
2018-09-08T04:02:59.050Z,0.00
2018-09-08T04:04:01.118Z,0.00
2018-09-08T04:04:59.027Z,0.00
2018-09-08T04:06:03.794Z,0.00
2018-09-08T04:06:58.951Z,0.00
2018-09-08T04:07:58.992Z,0.00
2018-09-08T04:08:58.912Z,0.00
2018-09-08T04:09:58.908Z,0.00
2018-09-08T04:18:27.601Z,0.00
2018-09-08T04:19:26.445Z,0.00
2018-09-08T04:22:41.630Z,4.00
2018-09-08T04:23:37.416Z,0.00
2018-09-08T04:24:37.514Z,4.00
2018-09-08T04:25:37.385Z,4.00
2018-09-08T04:26:59.421Z,4.00
2018-09-08T04:27:37.329Z,0.00
2018-09-08T04:28:37.288Z,4.00
2018-09-08T04:29:43.057Z,4.00
2018-09-08T04:30:37.254Z,4.00
2018-09-08T04:31:37.238Z,4.00
2018-09-08T04:32:37.208Z,8.00
2018-09-08T04:33:37.254Z,8.00
2018-09-08T04:34:37.145Z,12.00
2018-09-08T04:35:37.172Z,12.00
2018-09-08T04:36:37.096Z,12.00
2018-09-08T04:37:37.167Z,16.00
2018-09-08T04:38:37.046Z,20.00
2018-09-08T04:39:37.016Z,24.00
2018-09-08T04:40:36.986Z,24.00
2018-09-08T04:41:36.997Z,28.00
2018-09-08T04:42:36.958Z,32.00
2018-09-08T04:43:37.018Z,36.00
2018-09-08T04:44:36.948Z,36.00
2018-09-08T04:45:36.922Z,44.00
2018-09-08T04:46:36.858Z,48.00
2018-09-08T04:47:36.896Z,52.00
2018-09-08T04:48:36.830Z,60.00
2018-09-08T04:49:36.884Z,64.00
2018-09-08T04:50:36.731Z,72.00
2018-09-08T04:51:36.773Z,76.00
2018-09-08T04:52:36.681Z,84.00
2018-09-08T04:53:36.832Z,96.00
2018-09-08T04:54:36.627Z,104.00
2018-09-08T04:55:36.671Z,112.00
2018-09-08T04:56:36.591Z,120.00
2018-09-08T04:57:36.753Z,128.00
2018-09-08T04:58:36.529Z,140.00
2018-09-08T04:59:36.604Z,152.00
2018-09-08T05:00:36.506Z,160.00
2018-09-08T05:01:36.674Z,168.00
2018-09-08T05:02:36.433Z,180.00
2018-09-08T05:03:36.418Z,188.00
2018-09-08T05:04:36.386Z,200.00
2018-09-08T05:05:36.427Z,212.00
2018-09-08T05:06:36.329Z,224.00
2018-09-08T05:07:36.345Z,236.00
2018-09-08T05:08:36.270Z,248.00
2018-09-08T05:09:36.357Z,260.00
2018-09-08T05:10:36.248Z,268.00
2018-09-08T05:11:36.260Z,280.00
2018-09-08T05:12:36.217Z,296.00
2018-09-08T05:13:36.172Z,320.00
2018-09-08T05:14:36.118Z,344.00
2018-09-08T05:15:36.184Z,376.00
2018-09-08T05:16:36.064Z,408.00
2018-09-08T05:17:36.098Z,440.00
2018-09-08T05:18:36.090Z,472.00
2018-09-08T05:19:36.019Z,496.00
2018-09-08T05:20:35.956Z,520.00
2018-09-08T05:21:36.020Z,536.00
2018-09-08T05:22:35.917Z,552.00
2018-09-08T05:23:38.548Z,564.00
2018-09-08T05:24:38.540Z,572.00
2018-09-08T05:25:35.928Z,576.00
2018-09-08T05:26:35.869Z,576.00
2018-09-08T05:27:36.884Z,576.00
2018-09-08T05:28:35.796Z,576.00
2018-09-08T05:29:40.578Z,568.00
2018-09-08T05:30:35.698Z,560.00
2018-09-08T05:31:38.563Z,568.00
2018-09-08T05:32:37.548Z,600.00
2018-09-08T05:33:37.559Z,632.00
2018-09-08T05:34:37.738Z,644.00
2018-09-08T05:35:37.576Z,648.00
2018-09-08T05:36:37.126Z,656.00
2018-09-08T05:37:37.166Z,668.00
2018-09-08T05:38:37.066Z,676.00
2018-09-08T05:41:17.697Z,704.00
2018-09-08T05:42:17.687Z,712.00
2018-09-08T05:43:17.668Z,708.00
2018-09-08T05:44:31.768Z,708.00
2018-09-08T05:45:16.049Z,696.00
2018-09-08T05:46:16.119Z,696.00
2018-09-08T05:47:16.002Z,720.00
2018-09-08T05:48:17.050Z,736.00
2018-09-08T05:49:15.948Z,756.00
2018-09-08T05:50:28.734Z,772.00
2018-09-08T05:51:15.891Z,808.00
2018-09-08T05:52:27.725Z,824.00
2018-09-08T05:53:15.848Z,836.00
2018-09-08T05:54:28.777Z,856.00
2018-09-08T05:55:15.795Z,872.00
2018-09-08T05:56:20.783Z,884.00
2018-09-08T05:57:15.747Z,904.00
2018-09-08T05:58:16.849Z,916.00
2018-09-08T05:59:15.702Z,932.00
2018-09-08T06:00:28.292Z,944.00
2018-09-08T06:01:15.672Z,956.00
2018-09-08T06:02:17.655Z,968.00
2018-09-08T06:03:15.593Z,980.00
2018-09-08T06:04:15.628Z,984.00
2018-09-08T06:05:15.540Z,996.00
2018-09-08T06:06:26.398Z,1008.00
2018-09-08T06:07:15.483Z,1012.00
2018-09-08T06:08:17.709Z,1024.00
2018-09-08T06:09:15.442Z,1032.00
2018-09-08T06:10:15.488Z,1044.00
2018-09-08T06:11:15.410Z,1056.00
2018-09-08T06:12:15.482Z,1060.00
2018-09-08T06:13:15.342Z,1068.00
2018-09-08T06:14:17.434Z,1080.00
2018-09-08T06:15:15.279Z,1092.00
2018-09-08T06:17:15.852Z,1112.00
2018-09-08T06:18:15.850Z,1132.00
2018-09-08T06:19:15.735Z,1148.00
2018-09-08T06:20:15.740Z,1168.00
2018-09-08T06:21:15.681Z,1184.00
2018-09-08T06:22:15.784Z,1188.00
2018-09-08T06:23:15.647Z,1192.00
2018-09-08T06:24:15.611Z,1228.00
2018-09-08T06:25:15.601Z,1212.00
2018-09-08T06:26:15.567Z,1220.00
2018-09-08T06:27:15.539Z,1240.00
2018-09-08T06:28:15.546Z,1272.00
2018-09-08T06:29:15.486Z,1276.00
2018-09-08T06:30:15.504Z,1252.00
2018-09-08T06:31:15.439Z,1296.00
2018-09-08T06:32:20.936Z,1292.00
2018-09-08T06:33:15.456Z,1308.00
2018-09-08T06:34:15.430Z,1348.00
2018-09-08T06:35:15.451Z,1304.00
2018-09-08T06:36:15.314Z,1304.00
2018-09-08T06:37:15.306Z,1316.00
2018-09-08T06:38:15.360Z,1324.00
2018-09-08T06:39:15.228Z,1336.00
2018-09-08T06:40:15.211Z,1348.00
2018-09-08T06:41:15.273Z,1356.00
2018-09-08T06:42:15.544Z,1364.00
2018-09-08T06:43:15.186Z,1376.00
2018-09-08T06:44:15.106Z,1408.00
2018-09-08T06:45:15.153Z,1444.00
2018-09-08T06:46:15.040Z,1488.00
2018-09-08T06:47:15.111Z,1500.00
2018-09-08T06:48:15.021Z,1492.00
2018-09-08T06:49:15.023Z,1476.00
2018-09-08T06:50:14.936Z,1460.00
2018-09-08T06:51:14.957Z,1444.00
2018-09-08T06:52:15.895Z,1452.00
2018-09-08T06:53:14.946Z,1452.00
2018-09-08T06:54:14.836Z,1460.00
2018-09-08T06:55:15.407Z,1468.00
2018-09-08T06:56:14.789Z,1484.00
2018-09-08T06:57:14.772Z,1500.00
2018-09-08T06:58:14.731Z,1520.00
2018-09-08T06:59:14.708Z,1552.00
2018-09-08T07:00:14.687Z,1616.00
2018-09-08T07:01:14.664Z,1676.00
2018-09-08T07:02:14.630Z,1748.00
2018-09-08T07:03:14.631Z,1860.00
2018-09-08T07:04:14.584Z,2024.00
2018-09-08T07:05:15.569Z,2240.00
2018-09-08T07:06:14.522Z,2432.00
2018-09-08T07:07:14.547Z,2620.00
2018-09-08T07:08:14.483Z,2792.00
2018-09-08T07:09:14.455Z,2912.00
2018-09-08T07:10:14.429Z,2980.00
2018-09-08T07:11:14.429Z,3004.00
2018-09-08T07:12:14.375Z,2948.00
2018-09-08T07:14:00.195Z,2996.00
2018-09-08T07:15:00.200Z,2996.00
2018-09-08T07:16:00.107Z,3064.00
2018-09-08T07:17:00.134Z,3160.00
2018-09-08T07:18:00.044Z,3136.00
2018-09-08T07:19:00.083Z,3160.00
2018-09-08T07:19:59.995Z,3212.00
2018-09-08T07:21:01.984Z,3136.00
2018-09-08T07:21:59.940Z,3036.00
2018-09-08T07:22:59.923Z,3040.00
2018-09-08T07:23:59.877Z,2976.00
2018-09-08T07:24:59.920Z,2976.00
2018-09-08T07:25:59.836Z,2984.00
2018-09-08T07:26:59.837Z,2940.00
2018-09-08T07:27:59.790Z,2900.00
2018-09-08T07:29:20.762Z,2908.00
2018-09-08T07:29:59.735Z,3000.00
2018-09-08T07:31:01.788Z,3052.00
2018-09-08T07:31:59.699Z,3168.00
2018-09-08T07:33:01.687Z,3228.00
2018-09-08T07:33:59.630Z,3256.00
2018-09-08T07:35:21.612Z,3232.00
2018-09-08T07:35:59.581Z,3152.00
2018-09-08T07:37:04.562Z,3048.00
2018-09-08T07:37:59.538Z,3108.00
2018-09-08T07:39:04.036Z,3176.00
2018-09-08T07:39:59.471Z,3224.00
2018-09-08T07:41:27.048Z,3216.00
2018-09-08T07:41:59.416Z,3116.00
2018-09-08T07:43:05.068Z,3016.00
2018-09-08T07:43:59.378Z,2976.00
2018-09-08T07:45:32.071Z,3008.00
2018-09-08T07:45:59.358Z,3016.00
2018-09-08T07:46:59.309Z,3068.00
2018-09-08T07:48:00.270Z,3136.00
2018-09-08T07:48:59.259Z,3088.00
2018-09-08T07:50:05.058Z,2912.00
2018-09-08T07:55:39.901Z,1856.00
2018-09-08T07:57:00.850Z,1816.00
2018-09-08T07:57:39.842Z,1808.00
2018-09-08T07:58:45.754Z,1820.00
2018-09-08T07:59:39.770Z,1812.00
2018-09-08T08:01:16.282Z,1784.00
2018-09-08T08:01:39.723Z,1840.00
2018-09-08T08:02:39.694Z,1892.00
2018-09-08T08:03:40.680Z,1940.00
2018-09-08T08:04:39.648Z,2008.00
2018-09-08T08:05:39.619Z,2032.00
2018-09-08T08:06:39.605Z,1976.00
2018-09-08T08:08:00.566Z,1904.00
2018-09-08T08:08:39.589Z,2024.00
2018-09-08T08:09:41.545Z,2060.00
2018-09-08T08:10:39.499Z,2076.00
2018-09-08T08:11:51.260Z,2080.00
2018-09-08T08:12:39.448Z,2120.00
2018-09-08T08:13:44.268Z,2132.00
2018-09-08T08:14:39.453Z,2128.00
2018-09-08T08:15:41.370Z,2176.00
2018-09-08T08:16:39.326Z,2168.00
2018-09-08T08:17:56.269Z,2152.00
2018-09-08T08:18:39.285Z,2160.00
2018-09-08T08:19:40.279Z,2144.00
2018-09-08T08:20:39.249Z,2128.00
2018-09-08T08:21:45.770Z,2112.00
2018-09-08T08:22:39.178Z,2088.00
2018-09-08T08:23:45.784Z,2024.00
2018-09-08T08:24:39.167Z,2048.00
2018-09-08T08:25:40.128Z,2032.00
2018-09-08T08:26:39.085Z,2020.00
2018-09-08T08:28:10.769Z,2012.00
2018-09-08T08:28:39.029Z,1996.00
2018-09-08T08:29:39.005Z,2000.00
2018-09-08T08:30:38.996Z,2016.00
2018-09-08T08:31:38.956Z,2036.00
2018-09-08T08:32:40.948Z,2060.00
2018-09-08T08:33:38.891Z,2088.00
2018-09-08T08:34:44.764Z,2108.00
2018-09-08T08:35:38.885Z,2140.00
2018-09-08T08:36:40.846Z,2176.00
2018-09-08T08:37:38.820Z,2192.00
2018-09-08T08:38:55.774Z,2216.00
2018-09-08T08:39:38.759Z,2244.00
2018-09-08T08:40:38.729Z,2260.00
2018-09-08T08:41:38.712Z,2300.00
2018-09-08T08:42:39.749Z,2336.00
2018-09-08T08:43:38.677Z,2368.00
2018-09-08T08:44:33.223Z,2384.00
2018-09-08T08:45:33.163Z,2412.00
2018-09-08T08:46:56.911Z,2432.00
2018-09-08T08:47:33.107Z,2520.00
2018-09-08T08:48:49.930Z,2528.00
2018-09-08T08:49:33.067Z,2480.00
2018-09-08T08:50:33.089Z,2520.00
2018-09-08T08:51:33.007Z,2444.00
2018-09-08T08:52:39.917Z,2420.00
2018-09-08T08:53:32.959Z,2388.00
2018-09-08T08:54:53.954Z,2452.00
2018-09-08T08:55:32.898Z,2476.00
2018-09-08T08:56:39.412Z,2512.00
2018-09-08T08:57:32.856Z,2540.00
2018-09-08T08:58:49.425Z,2616.00
2018-09-08T08:59:32.827Z,2756.00
2018-09-08T09:00:43.418Z,2804.00
2018-09-08T09:01:32.761Z,2872.00
2018-09-08T09:02:32.737Z,2940.00
2018-09-08T09:03:32.707Z,3016.00
2018-09-08T09:05:08.433Z,3136.00
2018-09-08T09:05:32.650Z,3248.00
2018-09-08T09:06:32.627Z,3372.00
2018-09-08T09:07:53.604Z,3464.00
2018-09-08T09:08:32.863Z,3476.00
2018-09-08T09:09:32.586Z,3464.00
2018-09-08T09:10:38.429Z,3424.00
2018-09-08T09:11:32.735Z,3384.00
2018-09-08T09:12:33.921Z,3468.00
2018-09-08T09:13:32.578Z,3568.00
2018-09-08T09:16:27.555Z,3560.00
2018-09-08T09:17:27.468Z,3560.00
2018-09-08T09:18:34.512Z,3500.00
2018-09-08T09:19:27.429Z,3448.00
2018-09-08T09:20:34.224Z,3312.00
2018-09-08T09:21:27.401Z,3300.00
2018-09-08T09:22:27.349Z,3340.00
2018-09-08T09:23:27.324Z,3372.00
2018-09-08T09:24:28.747Z,3492.00
2018-09-08T09:25:27.323Z,3660.00
2018-09-08T09:26:27.255Z,3768.00
2018-09-08T09:27:27.223Z,3800.00
2018-09-08T09:28:27.210Z,3756.00
2018-09-08T09:29:27.179Z,3832.00
2018-09-08T09:30:27.136Z,3868.00
2018-09-08T09:31:27.116Z,3916.00
2018-09-08T09:32:28.096Z,3956.00
2018-09-08T09:33:27.060Z,4032.00
2018-09-08T09:34:54.573Z,4088.00
2018-09-08T09:35:27.011Z,4136.00
2018-09-08T09:36:26.980Z,4156.00
2018-09-08T09:37:31.584Z,4232.00
2018-09-08T09:38:26.933Z,4280.00
2018-09-08T09:39:26.918Z,4316.00
2018-09-08T09:40:26.897Z,4328.00
2018-09-08T09:41:32.588Z,4388.00
2018-09-08T09:42:26.835Z,4372.00
2018-09-08T09:43:26.810Z,4252.00
2018-09-08T09:44:26.784Z,4172.00
2018-09-08T09:45:26.826Z,4144.00
2018-09-08T09:46:26.732Z,4176.00
2018-09-08T09:47:26.711Z,4216.00
2018-09-08T09:48:26.682Z,4240.00
2018-09-08T09:49:26.681Z,4280.00
2018-09-08T09:50:26.655Z,4464.00
2018-09-08T09:51:28.601Z,4572.00
2018-09-08T09:52:26.592Z,4856.00
2018-09-08T09:53:31.091Z,4672.00
2018-09-08T09:54:26.521Z,4456.00
2018-09-08T09:55:26.519Z,4532.00
2018-09-08T09:56:26.475Z,4576.00
2018-09-08T09:57:32.083Z,4640.00
2018-09-08T09:58:26.440Z,4720.00
2018-09-08T09:59:26.408Z,4808.00
2018-09-08T10:00:26.389Z,5068.00
2018-09-08T10:01:26.349Z,5292.00
2018-09-08T10:02:26.318Z,5584.00
2018-09-08T10:03:26.306Z,5936.00
2018-09-08T10:04:26.296Z,6048.00
2018-09-08T10:05:26.245Z,6168.00
2018-09-08T10:06:26.245Z,6224.00
2018-09-08T10:07:26.240Z,6328.00
2018-09-08T10:08:26.167Z,6324.00
2018-09-08T10:09:26.151Z,6292.00
2018-09-08T10:10:26.155Z,5988.00
2018-09-08T10:11:26.089Z,5788.00
2018-09-08T10:12:26.063Z,5828.00
2018-09-08T10:13:26.035Z,5832.00
2018-09-08T10:14:26.018Z,5556.00
2018-09-08T10:15:26.023Z,5408.00
2018-09-08T10:16:25.960Z,5440.00
2018-09-08T10:17:25.965Z,5664.00
2018-09-08T10:18:25.899Z,6040.00
2018-09-08T10:19:25.893Z,5256.00
2018-09-08T10:20:25.873Z,4484.00
2018-09-08T10:21:25.845Z,5572.00
2018-09-08T10:22:25.805Z,5752.00
2018-09-08T10:23:25.821Z,5584.00
2018-09-08T10:24:25.752Z,5752.00
2018-09-08T10:25:26.739Z,5348.00
2018-09-08T10:26:25.797Z,5240.00
2018-09-08T10:27:25.742Z,5528.00
2018-09-08T10:28:25.665Z,5268.00
2018-09-08T10:29:25.646Z,5332.00
2018-09-08T10:30:25.690Z,5304.00
2018-09-08T10:31:26.592Z,5640.00
2018-09-08T10:32:25.557Z,5756.00
2018-09-08T10:33:25.542Z,5860.00
2018-09-08T10:34:25.512Z,6008.00
2018-09-08T10:35:25.492Z,5820.00
2018-09-08T10:36:25.459Z,5832.00
2018-09-08T10:37:25.454Z,6132.00
2018-09-08T10:38:25.458Z,6080.00
2018-09-08T10:39:25.426Z,5496.00
2018-09-08T10:40:25.381Z,4612.00
2018-09-08T10:41:25.338Z,4368.00
2018-09-08T10:42:25.303Z,4472.00
2018-09-08T10:43:26.290Z,4568.00
2018-09-08T10:44:25.256Z,5076.00
2018-09-08T10:45:25.234Z,4956.00
2018-09-08T10:46:25.199Z,5060.00
2018-09-08T10:47:25.193Z,4544.00
2018-09-08T10:48:25.154Z,4144.00
2018-09-08T10:49:25.130Z,3372.00
2018-09-08T10:50:25.111Z,3392.00
2018-09-08T10:51:25.084Z,5232.00
2018-09-08T10:52:25.061Z,6532.00
2018-09-08T10:53:25.068Z,7000.00
2018-09-08T10:54:24.999Z,7192.00
2018-09-08T10:55:25.004Z,7040.00
2018-09-08T10:56:24.948Z,6724.00
2018-09-08T10:57:25.934Z,7188.00
2018-09-08T10:58:24.909Z,7396.00
2018-09-08T10:59:24.883Z,8544.00
2018-09-08T11:00:24.848Z,8512.00
2018-09-08T11:01:24.859Z,7832.00
2018-09-08T11:02:25.025Z,7152.00
2018-09-08T11:03:24.777Z,6516.00
2018-09-08T11:04:24.758Z,6244.00
2018-09-08T11:05:24.729Z,5744.00
2018-09-08T11:06:24.698Z,5212.00
2018-09-08T11:07:25.705Z,4020.00
2018-09-08T11:08:24.651Z,3868.00
2018-09-08T11:09:24.622Z,4616.00
2018-09-08T11:10:24.605Z,5212.00
2018-09-08T11:11:39.136Z,5268.00
2018-09-08T11:12:24.553Z,4988.00
2018-09-08T11:13:24.527Z,5164.00
2018-09-08T11:14:24.515Z,5452.00
2018-09-08T11:15:24.485Z,4872.00
2018-09-08T11:16:24.449Z,4252.00
2018-09-08T11:17:24.435Z,4364.00
2018-09-08T11:18:24.396Z,4124.00
2018-09-08T11:19:24.377Z,4212.00
2018-09-08T11:20:24.359Z,4752.00
2018-09-08T11:21:24.325Z,5508.00
2018-09-08T11:22:24.305Z,5368.00
2018-09-08T11:23:25.279Z,5324.00
2018-09-08T11:24:24.259Z,4588.00
2018-09-08T11:25:25.237Z,4784.00
2018-09-08T11:26:24.238Z,5508.00
2018-09-08T11:27:26.174Z,5872.00
2018-09-08T11:28:24.228Z,5576.00
2018-09-08T11:29:29.102Z,5596.00
2018-09-08T11:30:24.100Z,5480.00
2018-09-08T11:31:25.099Z,5736.00
2018-09-08T11:32:24.044Z,4624.00
2018-09-08T11:33:30.610Z,4252.00
2018-09-08T11:34:23.989Z,4036.00
2018-09-08T11:35:39.606Z,4268.00
2018-09-08T11:36:23.954Z,3848.00
2018-09-08T11:37:39.625Z,3744.00
2018-09-08T11:38:24.134Z,3704.00
2018-09-08T11:39:23.875Z,3864.00
2018-09-08T11:40:23.856Z,3968.00
2018-09-08T11:41:23.827Z,3820.00
2018-09-08T11:42:23.799Z,3672.00
2018-09-08T11:43:24.789Z,4224.00
2018-09-08T11:44:23.765Z,4872.00
2018-09-08T11:45:24.729Z,4740.00
2018-09-08T11:46:23.724Z,4636.00
2018-09-08T11:47:24.687Z,3944.00
2018-09-08T11:48:23.649Z,3516.00
2018-09-08T11:49:23.708Z,3592.00
2018-09-08T11:50:23.605Z,3356.00
2018-09-08T11:51:23.601Z,3752.00
2018-09-08T11:52:23.551Z,3792.00
2018-09-08T11:53:23.534Z,3732.00
2018-09-08T11:54:23.507Z,3448.00
2018-09-08T11:55:23.502Z,3124.00
2018-09-08T11:56:23.443Z,3088.00
2018-09-08T11:57:23.422Z,3276.00
2018-09-08T11:58:23.399Z,3240.00
2018-09-08T11:59:23.402Z,3012.00
2018-09-08T12:00:23.354Z,2820.00
2018-09-08T12:01:23.326Z,2740.00
2018-09-08T12:02:23.307Z,2840.00
2018-09-08T12:03:23.285Z,2820.00
2018-09-08T12:04:23.249Z,2880.00
2018-09-08T12:05:23.228Z,3004.00
2018-09-08T12:06:23.207Z,3248.00
2018-09-08T12:07:23.181Z,3272.00
2018-09-08T12:08:23.160Z,3400.00
2018-09-08T12:09:23.129Z,3716.00
2018-09-08T12:10:23.119Z,4176.00
2018-09-08T12:11:23.084Z,4552.00
2018-09-08T12:12:23.046Z,4684.00
2018-09-08T12:13:23.031Z,4760.00
2018-09-08T12:14:23.004Z,4788.00
2018-09-08T12:15:22.986Z,4840.00
2018-09-08T12:16:22.947Z,4968.00
2018-09-08T12:17:22.939Z,4748.00
2018-09-08T12:18:22.899Z,4644.00
2018-09-08T12:19:22.903Z,4732.00
2018-09-08T12:20:23.001Z,5080.00
2018-09-08T12:21:22.869Z,5632.00
2018-09-08T12:22:22.812Z,5648.00
2018-09-08T12:23:22.794Z,5500.00
2018-09-08T12:24:22.747Z,5928.00
2018-09-08T12:25:22.745Z,5788.00
2018-09-08T12:26:22.701Z,5220.00
2018-09-08T12:27:22.698Z,4404.00
2018-09-08T12:28:22.644Z,3772.00
2018-09-08T12:29:22.634Z,3332.00
2018-09-08T12:30:22.649Z,3416.00
2018-09-08T12:31:23.595Z,3448.00
2018-09-08T12:32:22.603Z,3432.00
2018-09-08T12:33:22.534Z,3388.00
2018-09-08T12:34:22.503Z,3264.00
2018-09-08T12:35:22.488Z,3084.00
2018-09-08T12:36:22.455Z,2616.00
2018-09-08T12:37:22.439Z,2528.00
2018-09-08T12:38:22.420Z,2808.00
2018-09-08T12:39:22.411Z,2804.00
2018-09-08T12:40:22.357Z,2816.00
2018-09-08T12:41:22.363Z,2936.00
2018-09-08T12:42:22.316Z,2772.00
2018-09-08T12:44:14.144Z,3208.00
2018-09-08T12:45:15.091Z,3240.00
2018-09-08T12:46:14.065Z,3220.00
2018-09-08T12:47:16.147Z,3564.00
2018-09-08T12:48:14.013Z,3460.00
2018-09-08T12:49:14.000Z,3344.00
2018-09-08T12:50:14.340Z,3300.00
2018-09-08T12:51:13.941Z,3292.00
2018-09-08T12:52:13.915Z,3212.00
2018-09-08T12:53:13.939Z,2892.00
2018-09-08T12:54:13.867Z,2880.00